createdAt,value
2022-08-31T00:04:40.148Z,17.82
2022-08-31T00:09:44.229Z,17.72
2022-08-31T00:14:48.393Z,17.61
2022-08-31T00:19:52.540Z,17.56
2022-08-31T00:24:56.705Z,17.45
2022-08-31T00:30:00.899Z,17.41
2022-08-31T00:35:05.015Z,17.44
2022-08-31T00:40:09.283Z,17.39
2022-08-31T00:45:13.379Z,17.39
2022-08-31T00:50:17.533Z,17.38
2022-08-31T00:55:21.663Z,17.34
2022-08-31T01:00:25.858Z,17.32
2022-08-31T01:05:29.999Z,17.30
2022-08-31T01:10:34.172Z,17.31
2022-08-31T01:15:38.369Z,17.31
2022-08-31T01:20:42.451Z,17.34
2022-08-31T01:25:46.653Z,17.33
2022-08-31T01:30:50.778Z,17.37
2022-08-31T01:35:54.954Z,17.37
2022-08-31T01:40:57.207Z,17.32
2022-08-31T01:46:01.378Z,17.29
2022-08-31T01:51:03.622Z,17.28
2022-08-31T01:56:07.787Z,17.20
2022-08-31T02:01:19.402Z,17.15
2022-08-31T02:06:14.273Z,17.07
2022-08-31T02:11:16.540Z,17.01
2022-08-31T02:16:20.747Z,16.91
2022-08-31T02:21:22.955Z,16.84
2022-08-31T02:26:27.081Z,16.79
2022-08-31T02:31:31.337Z,16.74
2022-08-31T02:36:35.899Z,16.71
2022-08-31T02:41:39.565Z,16.67
2022-08-31T02:46:43.823Z,16.67
2022-08-31T02:51:47.891Z,16.67
2022-08-31T02:56:52.064Z,16.65
2022-08-31T03:01:56.450Z,16.62
2022-08-31T03:07:00.411Z,16.57
2022-08-31T03:12:04.542Z,16.51
2022-08-31T03:17:08.703Z,16.48
2022-08-31T03:22:12.858Z,16.45
2022-08-31T03:27:17.032Z,16.42
2022-08-31T03:32:21.335Z,16.39
2022-08-31T03:37:25.304Z,16.32
2022-08-31T03:42:29.473Z,16.31
2022-08-31T03:47:33.661Z,16.26
2022-08-31T03:52:37.814Z,16.20
2022-08-31T03:57:41.960Z,16.16
2022-08-31T04:02:46.191Z,16.13
2022-08-31T04:07:48.381Z,16.10
2022-08-31T04:12:52.584Z,16.05
2022-08-31T04:17:57.238Z,16.00
2022-08-31T04:22:58.986Z,15.94
2022-08-31T04:28:03.773Z,15.86
2022-08-31T04:33:07.347Z,15.79
2022-08-31T04:38:12.182Z,15.74
2022-08-31T04:43:15.660Z,15.70
2022-08-31T04:48:19.809Z,15.64
2022-08-31T04:53:23.936Z,15.61
2022-08-31T04:58:28.109Z,15.56
2022-08-31T05:03:32.290Z,15.54
2022-08-31T05:08:36.438Z,15.51
2022-08-31T05:13:40.590Z,15.50
2022-08-31T05:18:44.779Z,15.47
2022-08-31T05:23:48.896Z,15.50
2022-08-31T05:28:53.109Z,15.53
2022-08-31T05:33:57.247Z,15.60
2022-08-31T05:39:01.589Z,15.66
2022-08-31T05:44:05.531Z,15.71
2022-08-31T05:49:11.707Z,15.76
2022-08-31T05:54:13.884Z,15.78
2022-08-31T05:59:18.021Z,15.86
2022-08-31T06:04:20.407Z,15.94
2022-08-31T06:09:24.451Z,16.01
2022-08-31T06:14:26.730Z,16.12
2022-08-31T06:19:30.894Z,16.30
2022-08-31T06:24:35.050Z,16.49
2022-08-31T06:29:39.238Z,16.54
2022-08-31T06:34:43.357Z,16.58
2022-08-31T06:39:47.549Z,16.69
2022-08-31T06:44:51.716Z,16.74
2022-08-31T06:49:55.857Z,16.76
2022-08-31T06:55:00.001Z,16.78
2022-08-31T07:00:02.337Z,16.89
2022-08-31T07:05:06.431Z,16.91
2022-08-31T07:10:10.615Z,17.03
2022-08-31T07:15:14.779Z,16.97
2022-08-31T07:20:18.930Z,17.05
2022-08-31T07:25:23.104Z,17.16
2022-08-31T07:30:29.066Z,17.35
2022-08-31T07:35:31.373Z,17.65
2022-08-31T07:40:35.599Z,18.14
2022-08-31T07:45:39.826Z,18.41
2022-08-31T07:50:43.889Z,18.61
2022-08-31T07:55:48.033Z,18.51
2022-08-31T08:00:50.301Z,18.59
2022-08-31T08:05:54.497Z,18.44
2022-08-31T08:10:56.748Z,18.44
2022-08-31T08:16:01.081Z,18.43
2022-08-31T08:21:05.296Z,18.43
2022-08-31T08:26:09.653Z,18.49
2022-08-31T08:31:13.465Z,18.62
2022-08-31T08:36:17.510Z,18.73
2022-08-31T08:41:21.749Z,18.89
2022-08-31T08:46:34.778Z,19.34
2022-08-31T08:51:30.009Z,19.65
2022-08-31T08:56:34.384Z,19.89
2022-08-31T09:01:38.433Z,20.25
2022-08-31T09:06:45.358Z,20.32
2022-08-31T09:11:46.658Z,20.30
2022-08-31T09:16:50.818Z,20.53
2022-08-31T09:21:54.946Z,20.68
2022-08-31T09:26:59.142Z,20.71
2022-08-31T09:32:06.249Z,20.60
2022-08-31T09:37:07.430Z,20.85
2022-08-31T09:42:11.597Z,20.89
2022-08-31T09:47:15.738Z,20.96
2022-08-31T09:52:19.907Z,21.17
2022-08-31T09:57:22.192Z,21.23
2022-08-31T10:02:26.335Z,21.46
2022-08-31T10:07:30.486Z,21.48
2022-08-31T10:12:34.750Z,21.57
2022-08-31T10:17:38.866Z,21.78
2022-08-31T10:22:42.960Z,22.08
2022-08-31T10:27:47.116Z,22.17
2022-08-31T10:32:51.323Z,22.28
2022-08-31T10:37:55.483Z,22.73
2022-08-31T10:42:59.597Z,22.94
2022-08-31T10:48:03.770Z,22.68
2022-08-31T10:53:07.950Z,22.60
2022-08-31T10:58:12.101Z,22.77
2022-08-31T11:03:16.238Z,22.56
2022-08-31T11:08:20.433Z,22.68
2022-08-31T11:13:24.580Z,22.49
2022-08-31T11:18:28.720Z,22.79
2022-08-31T11:23:32.903Z,22.95
2022-08-31T11:28:37.050Z,22.98
2022-08-31T11:33:55.296Z,23.25
2022-08-31T11:38:45.371Z,23.15
2022-08-31T11:43:47.658Z,23.41
2022-08-31T11:48:51.821Z,23.75
2022-08-31T11:53:54.055Z,23.48
2022-08-31T11:58:58.224Z,23.61
2022-08-31T12:04:02.397Z,23.72
2022-08-31T12:09:06.546Z,23.40
2022-08-31T12:14:10.715Z,24.14
2022-08-31T12:19:14.853Z,24.64
2022-08-31T12:24:19.101Z,24.68
2022-08-31T12:29:23.148Z,24.25
2022-08-31T12:34:27.352Z,23.75
2022-08-31T12:39:31.528Z,23.71
2022-08-31T12:44:35.639Z,23.97
2022-08-31T12:49:39.819Z,23.66
2022-08-31T12:54:42.065Z,23.68
2022-08-31T13:00:00.574Z,24.07
2022-08-31T13:04:48.483Z,24.42
2022-08-31T13:09:52.662Z,24.82
2022-08-31T13:14:56.804Z,24.83
2022-08-31T13:19:59.074Z,24.95
2022-08-31T13:25:03.233Z,24.57
2022-08-31T13:30:07.470Z,24.83
2022-08-31T13:40:15.751Z,24.55
2022-08-31T13:50:24.062Z,24.35
2022-08-31T13:55:30.195Z,24.42
2022-08-31T14:00:32.333Z,24.66
2022-08-31T14:05:36.567Z,24.82
2022-08-31T14:10:40.755Z,24.81
2022-08-31T14:15:44.971Z,24.75
2022-08-31T14:21:10.215Z,24.78
2022-08-31T14:25:51.266Z,25.00
2022-08-31T14:31:02.480Z,25.35
2022-08-31T14:36:13.624Z,25.44
2022-08-31T14:41:24.751Z,25.16
2022-08-31T14:46:35.946Z,25.20
2022-08-31T14:51:47.096Z,25.01
2022-08-31T14:56:56.365Z,25.14
2022-08-31T15:02:00.624Z,24.89
2022-08-31T15:07:09.470Z,25.09
2022-08-31T15:12:08.836Z,25.11
2022-08-31T15:17:19.496Z,25.09
2022-08-31T15:22:17.181Z,24.86
2022-08-31T15:27:21.317Z,25.04
2022-08-31T15:32:25.496Z,24.74
2022-08-31T15:37:32.194Z,24.61
2022-08-31T15:42:33.783Z,24.75
2022-08-31T15:47:37.946Z,24.70
2022-08-31T15:52:42.161Z,24.65
2022-08-31T15:57:46.303Z,25.18
2022-08-31T16:02:50.443Z,26.88
2022-08-31T16:07:54.619Z,27.49
2022-08-31T16:12:58.762Z,27.94
2022-08-31T16:18:02.940Z,27.65
2022-08-31T16:23:07.085Z,27.89
2022-08-31T16:28:11.280Z,27.28
2022-08-31T16:33:15.592Z,25.63
2022-08-31T16:38:19.712Z,26.51
2022-08-31T16:43:21.793Z,26.69
2022-08-31T16:48:26.002Z,25.75
2022-08-31T16:53:30.144Z,24.42
2022-08-31T16:58:51.174Z,24.04
2022-08-31T17:03:38.445Z,23.67
2022-08-31T17:08:42.588Z,23.41
2022-08-31T17:13:46.770Z,23.18
2022-08-31T17:18:50.938Z,22.87
2022-08-31T17:23:55.108Z,22.64
2022-08-31T17:28:59.257Z,22.39
2022-08-31T17:34:03.400Z,22.25
2022-08-31T17:39:07.558Z,22.12
2022-08-31T17:44:11.697Z,21.94
2022-08-31T17:49:15.869Z,21.86
2022-08-31T17:54:20.034Z,21.82
2022-08-31T17:59:24.165Z,21.59
2022-08-31T18:04:28.471Z,21.48
2022-08-31T18:09:32.522Z,21.35
2022-08-31T18:14:36.656Z,21.28
2022-08-31T18:24:44.973Z,21.11
2022-08-31T18:29:49.155Z,21.01
2022-08-31T18:34:55.307Z,20.95
2022-08-31T18:39:59.886Z,20.92
2022-08-31T18:44:57.870Z,20.85
2022-08-31T18:50:02.013Z,20.77
2022-08-31T18:55:06.180Z,20.63
2022-08-31T19:00:10.324Z,20.55
2022-08-31T19:05:14.624Z,20.49
2022-08-31T19:10:18.640Z,20.35
2022-08-31T19:15:25.468Z,20.26
2022-08-31T19:20:26.993Z,20.17
2022-08-31T19:30:35.346Z,19.64
2022-08-31T19:35:39.446Z,19.46
2022-08-31T19:40:43.671Z,19.42
2022-08-31T19:45:47.778Z,19.37
2022-08-31T19:50:51.896Z,19.36
2022-08-31T19:55:56.098Z,19.38
2022-08-31T20:01:01.500Z,19.35
2022-08-31T20:06:04.408Z,19.27
2022-08-31T20:11:08.540Z,19.15
2022-08-31T20:16:12.749Z,19.09
2022-08-31T20:26:21.052Z,18.93
2022-08-31T20:31:23.379Z,18.85
2022-08-31T20:36:36.461Z,18.71
2022-08-31T20:41:52.927Z,18.59
2022-08-31T20:46:56.884Z,18.47
2022-08-31T20:52:07.939Z,18.44
2022-08-31T20:57:19.119Z,18.33
2022-08-31T21:02:30.379Z,18.21
2022-08-31T21:07:32.576Z,18.04
2022-08-31T21:12:36.737Z,17.87
2022-08-31T21:17:40.881Z,17.78
2022-08-31T21:22:45.059Z,17.59
2022-08-31T21:27:49.182Z,17.44
2022-08-31T21:32:53.334Z,17.24
2022-08-31T21:37:57.524Z,17.06
2022-08-31T21:43:01.671Z,16.82
2022-08-31T21:48:05.857Z,16.67
2022-08-31T21:53:10.016Z,16.57
2022-08-31T21:58:14.158Z,16.50
2022-08-31T22:03:18.315Z,16.43
2022-08-31T22:08:22.451Z,16.31
2022-08-31T22:13:26.646Z,16.26
2022-08-31T22:19:00.136Z,16.25
2022-08-31T22:23:34.950Z,16.25
2022-08-31T22:28:39.097Z,16.16
2022-08-31T22:33:47.484Z,16.18
2022-08-31T22:38:47.420Z,16.16
2022-08-31T22:43:51.579Z,16.11
2022-08-31T22:48:55.757Z,16.04
2022-08-31T22:53:58.009Z,16.00
2022-08-31T22:59:02.197Z,16.12
2022-08-31T23:04:06.527Z,16.27
2022-08-31T23:09:08.615Z,16.24
2022-08-31T23:14:12.750Z,16.06
2022-08-31T23:19:16.915Z,15.90
2022-08-31T23:24:21.106Z,15.72
2022-08-31T23:29:25.250Z,15.58
2022-08-31T23:34:29.460Z,15.54
2022-08-31T23:39:33.551Z,15.50
2022-08-31T23:44:37.712Z,15.37
2022-08-31T23:49:41.875Z,15.29
2022-08-31T23:54:46.023Z,15.19
2022-08-31T23:59:52.354Z,15.07
